sensor_id;sensor_type;location;lat;lon;timestamp;P1;durP1;ratioP1;P2;durP2;ratioP2
48040;SDS011;33815;48.386;11.738;2023-05-10T00:01:22;3.17;;;1.50;;
48040;SDS011;33815;48.386;11.738;2023-05-10T00:03:48;3.30;;;2.47;;
48040;SDS011;33815;48.386;11.738;2023-05-10T00:06:13;3.00;;;1.60;;
48040;SDS011;33815;48.386;11.738;2023-05-10T00:08:38;1.60;;;1.50;;
48040;SDS011;33815;48.386;11.738;2023-05-10T00:11:04;2.40;;;1.63;;
48040;SDS011;33815;48.386;11.738;2023-05-10T00:13:29;1.48;;;1.35;;
48040;SDS011;33815;48.386;11.738;2023-05-10T00:15:54;1.87;;;1.17;;
48040;SDS011;33815;48.386;11.738;2023-05-10T00:18:19;1.25;;;1.15;;
48040;SDS011;33815;48.386;11.738;2023-05-10T00:20:45;1.63;;;1.20;;
48040;SDS011;33815;48.386;11.738;2023-05-10T00:23:11;1.27;;;1.20;;
48040;SDS011;33815;48.386;11.738;2023-05-10T00:25:37;1.30;;;1.20;;
48040;SDS011;33815;48.386;11.738;2023-05-10T00:28:02;1.85;;;1.35;;
48040;SDS011;33815;48.386;11.738;2023-05-10T00:30:27;1.02;;;1.02;;
48040;SDS011;33815;48.386;11.738;2023-05-10T00:32:52;3.15;;;1.52;;
48040;SDS011;33815;48.386;11.738;2023-05-10T00:35:18;1.60;;;1.10;;
48040;SDS011;33815;48.386;11.738;2023-05-10T00:37:43;1.80;;;1.50;;
48040;SDS011;33815;48.386;11.738;2023-05-10T00:40:08;1.60;;;1.50;;
48040;SDS011;33815;48.386;11.738;2023-05-10T00:42:34;1.85;;;1.20;;
48040;SDS011;33815;48.386;11.738;2023-05-10T00:44:59;1.90;;;1.45;;
48040;SDS011;33815;48.386;11.738;2023-05-10T00:47:25;1.77;;;1.67;;
48040;SDS011;33815;48.386;11.738;2023-05-10T00:49:50;2.13;;;1.67;;
48040;SDS011;33815;48.386;11.738;2023-05-10T00:52:16;2.92;;;1.80;;
48040;SDS011;33815;48.386;11.738;2023-05-10T00:54:42;2.10;;;1.55;;
48040;SDS011;33815;48.386;11.738;2023-05-10T00:57:07;4.10;;;1.92;;
48040;SDS011;33815;48.386;11.738;2023-05-10T00:59:32;2.40;;;1.77;;
48040;SDS011;33815;48.386;11.738;2023-05-10T01:01:58;2.45;;;1.85;;
48040;SDS011;33815;48.386;11.738;2023-05-10T01:04:23;2.80;;;2.20;;
48040;SDS011;33815;48.386;11.738;2023-05-10T01:06:50;3.33;;;2.00;;
48040;SDS011;33815;48.386;11.738;2023-05-10T01:09:16;2.85;;;2.47;;
48040;SDS011;33815;48.386;11.738;2023-05-10T01:11:43;2.30;;;2.10;;
48040;SDS011;33815;48.386;11.738;2023-05-10T01:14:08;2.58;;;2.10;;
48040;SDS011;33815;48.386;11.738;2023-05-10T01:16:37;2.78;;;2.28;;
48040;SDS011;33815;48.386;11.738;2023-05-10T01:19:04;4.60;;;2.40;;
48040;SDS011;33815;48.386;11.738;2023-05-10T01:26:48;2.38;;;2.00;;
48040;SDS011;33815;48.386;11.738;2023-05-10T01:29:53;2.65;;;1.98;;
48040;SDS011;33815;48.386;11.738;2023-05-10T01:35:43;3.65;;;2.00;;
48040;SDS011;33815;48.386;11.738;2023-05-10T01:38:20;3.17;;;2.28;;
48040;SDS011;33815;48.386;11.738;2023-05-10T01:41:01;2.72;;;2.15;;
48040;SDS011;33815;48.386;11.738;2023-05-10T01:43:57;4.55;;;2.42;;
48040;SDS011;33815;48.386;11.738;2023-05-10T01:46:42;2.00;;;1.88;;
48040;SDS011;33815;48.386;11.738;2023-05-10T01:49:09;2.10;;;2.00;;
48040;SDS011;33815;48.386;11.738;2023-05-10T01:51:39;3.88;;;1.77;;
48040;SDS011;33815;48.386;11.738;2023-05-10T01:54:16;2.33;;;1.98;;
48040;SDS011;33815;48.386;11.738;2023-05-10T01:56:44;1.77;;;1.67;;
48040;SDS011;33815;48.386;11.738;2023-05-10T01:59:13;2.10;;;1.77;;
48040;SDS011;33815;48.386;11.738;2023-05-10T02:01:41;3.90;;;1.80;;
48040;SDS011;33815;48.386;11.738;2023-05-10T02:04:08;2.28;;;1.80;;
48040;SDS011;33815;48.386;11.738;2023-05-10T02:06:35;1.85;;;1.75;;
48040;SDS011;33815;48.386;11.738;2023-05-10T02:09:03;2.47;;;1.98;;
48040;SDS011;33815;48.386;11.738;2023-05-10T02:11:29;2.00;;;1.90;;
48040;SDS011;33815;48.386;11.738;2023-05-10T02:13:56;2.25;;;2.10;;
48040;SDS011;33815;48.386;11.738;2023-05-10T02:16:23;2.03;;;1.80;;
48040;SDS011;33815;48.386;11.738;2023-05-10T02:18:51;2.28;;;1.88;;
48040;SDS011;33815;48.386;11.738;2023-05-10T02:21:19;2.35;;;1.83;;
48040;SDS011;33815;48.386;11.738;2023-05-10T02:23:45;2.38;;;1.98;;
48040;SDS011;33815;48.386;11.738;2023-05-10T02:26:11;1.50;;;1.40;;
48040;SDS011;33815;48.386;11.738;2023-05-10T02:28:38;1.50;;;1.38;;
48040;SDS011;33815;48.386;11.738;2023-05-10T02:31:05;1.27;;;1.27;;
48040;SDS011;33815;48.386;11.738;2023-05-10T02:33:31;1.23;;;1.17;;
48040;SDS011;33815;48.386;11.738;2023-05-10T02:35:58;4.53;;;1.55;;
48040;SDS011;33815;48.386;11.738;2023-05-10T02:38:24;1.27;;;1.17;;
48040;SDS011;33815;48.386;11.738;2023-05-10T02:40:51;4.93;;;1.10;;
48040;SDS011;33815;48.386;11.738;2023-05-10T02:43:18;2.63;;;1.30;;
48040;SDS011;33815;48.386;11.738;2023-05-10T02:45:46;1.25;;;1.15;;
48040;SDS011;33815;48.386;11.738;2023-05-10T02:48:12;3.22;;;1.38;;
48040;SDS011;33815;48.386;11.738;2023-05-10T02:50:38;1.52;;;1.30;;
48040;SDS011;33815;48.386;11.738;2023-05-10T02:53:15;1.70;;;1.60;;
48040;SDS011;33815;48.386;11.738;2023-05-10T02:55:43;1.38;;;1.27;;
48040;SDS011;33815;48.386;11.738;2023-05-10T02:58:14;1.20;;;1.10;;
48040;SDS011;33815;48.386;11.738;2023-05-10T03:00:39;1.23;;;1.15;;
48040;SDS011;33815;48.386;11.738;2023-05-10T03:03:04;1.25;;;1.17;;
48040;SDS011;33815;48.386;11.738;2023-05-10T03:05:30;1.10;;;1.10;;
48040;SDS011;33815;48.386;11.738;2023-05-10T03:07:55;2.47;;;1.00;;
48040;SDS011;33815;48.386;11.738;2023-05-10T03:10:22;1.20;;;1.10;;
48040;SDS011;33815;48.386;11.738;2023-05-10T03:21:05;1.50;;;1.30;;
48040;SDS011;33815;48.386;11.738;2023-05-10T03:23:35;1.00;;;1.00;;
48040;SDS011;33815;48.386;11.738;2023-05-10T03:26:04;1.40;;;1.30;;
48040;SDS011;33815;48.386;11.738;2023-05-10T03:28:29;1.85;;;1.02;;
48040;SDS011;33815;48.386;11.738;2023-05-10T03:30:57;0.82;;;0.82;;
48040;SDS011;33815;48.386;11.738;2023-05-10T03:33:24;1.38;;;1.00;;
48040;SDS011;33815;48.386;11.738;2023-05-10T03:35:49;3.72;;;2.35;;
48040;SDS011;33815;48.386;11.738;2023-05-10T03:38:15;1.27;;;1.13;;
48040;SDS011;33815;48.386;11.738;2023-05-10T03:40:40;0.90;;;0.90;;
48040;SDS011;33815;48.386;11.738;2023-05-10T03:43:06;1.53;;;1.17;;
48040;SDS011;33815;48.386;11.738;2023-05-10T03:45:31;1.30;;;1.23;;
48040;SDS011;33815;48.386;11.738;2023-05-10T03:47:57;0.95;;;0.95;;
48040;SDS011;33815;48.386;11.738;2023-05-10T03:50:23;0.93;;;0.93;;
48040;SDS011;33815;48.386;11.738;2023-05-10T03:52:48;1.10;;;1.10;;
48040;SDS011;33815;48.386;11.738;2023-05-10T03:55:14;1.00;;;1.00;;
48040;SDS011;33815;48.386;11.738;2023-05-10T03:57:39;1.83;;;1.30;;
48040;SDS011;33815;48.386;11.738;2023-05-10T04:00:04;1.33;;;1.25;;
48040;SDS011;33815;48.386;11.738;2023-05-10T04:02:30;2.40;;;1.30;;
48040;SDS011;33815;48.386;11.738;2023-05-10T04:04:56;1.38;;;1.20;;
48040;SDS011;33815;48.386;11.738;2023-05-10T04:07:21;1.15;;;1.13;;
48040;SDS011;33815;48.386;11.738;2023-05-10T04:09:46;1.58;;;1.33;;
48040;SDS011;33815;48.386;11.738;2023-05-10T04:12:12;1.13;;;1.08;;
48040;SDS011;33815;48.386;11.738;2023-05-10T04:14:37;1.30;;;1.10;;
48040;SDS011;33815;48.386;11.738;2023-05-10T04:17:03;1.92;;;1.38;;
48040;SDS011;33815;48.386;11.738;2023-05-10T04:19:28;1.50;;;1.40;;
48040;SDS011;33815;48.386;11.738;2023-05-10T04:21:57;1.52;;;1.42;;
48040;SDS011;33815;48.386;11.738;2023-05-10T04:24:23;1.67;;;1.35;;
48040;SDS011;33815;48.386;11.738;2023-05-10T04:26:48;1.25;;;1.15;;
48040;SDS011;33815;48.386;11.738;2023-05-10T04:29:14;1.43;;;1.33;;
48040;SDS011;33815;48.386;11.738;2023-05-10T04:31:39;1.45;;;1.35;;
48040;SDS011;33815;48.386;11.738;2023-05-10T04:34:04;1.40;;;1.30;;
48040;SDS011;33815;48.386;11.738;2023-05-10T04:36:30;1.30;;;1.30;;
48040;SDS011;33815;48.386;11.738;2023-05-10T04:38:57;0.93;;;0.93;;
48040;SDS011;33815;48.386;11.738;2023-05-10T04:41:22;1.40;;;1.30;;
48040;SDS011;33815;48.386;11.738;2023-05-10T04:43:47;1.40;;;1.30;;
48040;SDS011;33815;48.386;11.738;2023-05-10T04:46:14;1.10;;;1.00;;
48040;SDS011;33815;48.386;11.738;2023-05-10T04:48:39;2.03;;;1.23;;
48040;SDS011;33815;48.386;11.738;2023-05-10T04:51:04;1.27;;;1.27;;
48040;SDS011;33815;48.386;11.738;2023-05-10T04:53:31;0.85;;;0.85;;
48040;SDS011;33815;48.386;11.738;2023-05-10T04:55:56;1.33;;;1.17;;
48040;SDS011;33815;48.386;11.738;2023-05-10T04:58:21;1.33;;;1.27;;
48040;SDS011;33815;48.386;11.738;2023-05-10T05:00:47;1.15;;;0.75;;
48040;SDS011;33815;48.386;11.738;2023-05-10T05:03:12;0.97;;;0.97;;
48040;SDS011;33815;48.386;11.738;2023-05-10T05:05:37;1.30;;;1.30;;
48040;SDS011;33815;48.386;11.738;2023-05-10T05:08:03;1.27;;;1.08;;
48040;SDS011;33815;48.386;11.738;2023-05-10T05:10:28;1.70;;;0.88;;
48040;SDS011;33815;48.386;11.738;2023-05-10T05:12:53;2.55;;;1.20;;
48040;SDS011;33815;48.386;11.738;2023-05-10T05:15:19;0.90;;;0.90;;
48040;SDS011;33815;48.386;11.738;2023-05-10T05:17:44;2.13;;;1.00;;
48040;SDS011;33815;48.386;11.738;2023-05-10T05:20:09;0.80;;;0.80;;
48040;SDS011;33815;48.386;11.738;2023-05-10T05:22:36;2.55;;;0.70;;
48040;SDS011;33815;48.386;11.738;2023-05-10T05:25:01;1.05;;;0.80;;
48040;SDS011;33815;48.386;11.738;2023-05-10T05:27:28;0.63;;;0.63;;
48040;SDS011;33815;48.386;11.738;2023-05-10T05:29:54;1.52;;;0.70;;
48040;SDS011;33815;48.386;11.738;2023-05-10T05:32:19;0.57;;;0.57;;
48040;SDS011;33815;48.386;11.738;2023-05-10T05:34:45;0.60;;;0.60;;
48040;SDS011;33815;48.386;11.738;2023-05-10T05:37:14;2.15;;;0.60;;
48040;SDS011;33815;48.386;11.738;2023-05-10T05:39:40;0.75;;;0.68;;
48040;SDS011;33815;48.386;11.738;2023-05-10T05:42:05;0.60;;;0.60;;
48040;SDS011;33815;48.386;11.738;2023-05-10T05:44:30;0.70;;;0.70;;
48040;SDS011;33815;48.386;11.738;2023-05-10T05:46:56;0.60;;;0.60;;
48040;SDS011;33815;48.386;11.738;2023-05-10T05:49:21;0.65;;;0.65;;
48040;SDS011;33815;48.386;11.738;2023-05-10T05:51:46;0.63;;;0.63;;
48040;SDS011;33815;48.386;11.738;2023-05-10T05:54:13;1.67;;;0.60;;
48040;SDS011;33815;48.386;11.738;2023-05-10T05:56:39;0.40;;;0.40;;
48040;SDS011;33815;48.386;11.738;2023-05-10T05:59:04;0.50;;;0.50;;
48040;SDS011;33815;48.386;11.738;2023-05-10T06:01:29;5.15;;;1.30;;
48040;SDS011;33815;48.386;11.738;2023-05-10T06:03:55;0.60;;;0.60;;
48040;SDS011;33815;48.386;11.738;2023-05-10T06:06:20;0.70;;;0.70;;
48040;SDS011;33815;48.386;11.738;2023-05-10T06:08:45;0.80;;;0.77;;
48040;SDS011;33815;48.386;11.738;2023-05-10T06:11:10;1.13;;;0.70;;
48040;SDS011;33815;48.386;11.738;2023-05-10T06:13:36;0.80;;;0.80;;
48040;SDS011;33815;48.386;11.738;2023-05-10T06:16:02;1.10;;;1.00;;
48040;SDS011;33815;48.386;11.738;2023-05-10T06:18:27;0.80;;;0.80;;
48040;SDS011;33815;48.386;11.738;2023-05-10T06:20:53;2.30;;;1.00;;
48040;SDS011;33815;48.386;11.738;2023-05-10T06:23:18;1.33;;;0.80;;
48040;SDS011;33815;48.386;11.738;2023-05-10T06:25:43;5.20;;;0.83;;
48040;SDS011;33815;48.386;11.738;2023-05-10T06:28:08;1.45;;;0.90;;
48040;SDS011;33815;48.386;11.738;2023-05-10T06:30:35;0.90;;;0.70;;
48040;SDS011;33815;48.386;11.738;2023-05-10T06:33:01;0.93;;;0.93;;
48040;SDS011;33815;48.386;11.738;2023-05-10T06:35:26;0.90;;;0.90;;
48040;SDS011;33815;48.386;11.738;2023-05-10T06:37:51;1.83;;;1.47;;
48040;SDS011;33815;48.386;11.738;2023-05-10T06:40:17;0.90;;;0.90;;
48040;SDS011;33815;48.386;11.738;2023-05-10T06:42:42;1.10;;;1.08;;
48040;SDS011;33815;48.386;11.738;2023-05-10T06:45:09;1.17;;;1.15;;
48040;SDS011;33815;48.386;11.738;2023-05-10T06:47:35;0.95;;;0.95;;
48040;SDS011;33815;48.386;11.738;2023-05-10T06:50:00;1.65;;;1.40;;
48040;SDS011;33815;48.386;11.738;2023-05-10T06:52:26;1.27;;;1.17;;
48040;SDS011;33815;48.386;11.738;2023-05-10T06:54:51;2.25;;;1.20;;
48040;SDS011;33815;48.386;11.738;2023-05-10T06:57:17;1.70;;;1.15;;
48040;SDS011;33815;48.386;11.738;2023-05-10T06:59:42;1.10;;;1.00;;
48040;SDS011;33815;48.386;11.738;2023-05-10T07:02:08;1.00;;;1.00;;
48040;SDS011;33815;48.386;11.738;2023-05-10T07:04:33;1.30;;;1.20;;
48040;SDS011;33815;48.386;11.738;2023-05-10T07:06:58;1.20;;;1.10;;
48040;SDS011;33815;48.386;11.738;2023-05-10T07:09:24;1.10;;;1.10;;
48040;SDS011;33815;48.386;11.738;2023-05-10T07:11:49;1.65;;;1.33;;
48040;SDS011;33815;48.386;11.738;2023-05-10T07:14:14;2.75;;;1.80;;
48040;SDS011;33815;48.386;11.738;2023-05-10T07:16:40;1.40;;;1.30;;
48040;SDS011;33815;48.386;11.738;2023-05-10T07:19:05;1.35;;;1.25;;
48040;SDS011;33815;48.386;11.738;2023-05-10T07:21:30;2.30;;;1.38;;
48040;SDS011;33815;48.386;11.738;2023-05-10T07:23:56;1.25;;;1.20;;
48040;SDS011;33815;48.386;11.738;2023-05-10T07:26:21;5.50;;;2.55;;
48040;SDS011;33815;48.386;11.738;2023-05-10T07:28:47;1.50;;;1.40;;
48040;SDS011;33815;48.386;11.738;2023-05-10T07:31:12;1.73;;;1.63;;
48040;SDS011;33815;48.386;11.738;2023-05-10T07:33:37;4.00;;;1.58;;
48040;SDS011;33815;48.386;11.738;2023-05-10T07:36:02;1.43;;;1.33;;
48040;SDS011;33815;48.386;11.738;2023-05-10T07:38:28;1.50;;;1.40;;
48040;SDS011;33815;48.386;11.738;2023-05-10T07:40:53;3.10;;;1.80;;
48040;SDS011;33815;48.386;11.738;2023-05-10T07:43:18;2.00;;;1.90;;
48040;SDS011;33815;48.386;11.738;2023-05-10T07:45:43;1.70;;;1.60;;
48040;SDS011;33815;48.386;11.738;2023-05-10T07:48:09;1.80;;;1.57;;
48040;SDS011;33815;48.386;11.738;2023-05-10T07:50:34;2.53;;;1.60;;
48040;SDS011;33815;48.386;11.738;2023-05-10T07:52:59;1.75;;;1.65;;
48040;SDS011;33815;48.386;11.738;2023-05-10T07:55:25;1.60;;;1.50;;
48040;SDS011;33815;48.386;11.738;2023-05-10T07:57:51;1.40;;;1.30;;
48040;SDS011;33815;48.386;11.738;2023-05-10T08:00:16;1.40;;;1.30;;
48040;SDS011;33815;48.386;11.738;2023-05-10T08:02:43;1.60;;;1.50;;
48040;SDS011;33815;48.386;11.738;2023-05-10T08:05:08;1.40;;;1.30;;
48040;SDS011;33815;48.386;11.738;2023-05-10T08:07:34;1.10;;;1.00;;
48040;SDS011;33815;48.386;11.738;2023-05-10T08:09:59;2.70;;;1.50;;
48040;SDS011;33815;48.386;11.738;2023-05-10T08:12:25;2.97;;;1.02;;
48040;SDS011;33815;48.386;11.738;2023-05-10T08:14:50;1.00;;;0.93;;
48040;SDS011;33815;48.386;11.738;2023-05-10T08:17:16;1.38;;;1.27;;
48040;SDS011;33815;48.386;11.738;2023-05-10T08:19:41;1.30;;;1.30;;
48040;SDS011;33815;48.386;11.738;2023-05-10T08:22:06;1.33;;;1.23;;
48040;SDS011;33815;48.386;11.738;2023-05-10T08:24:32;0.88;;;0.88;;
48040;SDS011;33815;48.386;11.738;2023-05-10T08:26:57;1.10;;;1.00;;
48040;SDS011;33815;48.386;11.738;2023-05-10T08:29:22;1.05;;;1.05;;
48040;SDS011;33815;48.386;11.738;2023-05-10T08:31:48;1.00;;;1.00;;
48040;SDS011;33815;48.386;11.738;2023-05-10T08:34:13;1.08;;;1.08;;
48040;SDS011;33815;48.386;11.738;2023-05-10T08:36:38;1.00;;;1.00;;
48040;SDS011;33815;48.386;11.738;2023-05-10T08:39:03;1.13;;;1.13;;
48040;SDS011;33815;48.386;11.738;2023-05-10T08:41:29;1.10;;;1.00;;
48040;SDS011;33815;48.386;11.738;2023-05-10T08:43:56;0.95;;;0.95;;
48040;SDS011;33815;48.386;11.738;2023-05-10T08:46:22;2.60;;;0.93;;
48040;SDS011;33815;48.386;11.738;2023-05-10T08:48:48;1.00;;;1.00;;
48040;SDS011;33815;48.386;11.738;2023-05-10T08:51:17;1.38;;;0.90;;
48040;SDS011;33815;48.386;11.738;2023-05-10T08:53:44;1.20;;;1.10;;
48040;SDS011;33815;48.386;11.738;2023-05-10T08:56:10;1.58;;;1.20;;
48040;SDS011;33815;48.386;11.738;2023-05-10T08:58:37;1.25;;;1.02;;
48040;SDS011;33815;48.386;11.738;2023-05-10T09:01:03;1.00;;;1.00;;
48040;SDS011;33815;48.386;11.738;2023-05-10T09:03:29;1.58;;;1.33;;
48040;SDS011;33815;48.386;11.738;2023-05-10T09:05:55;2.08;;;1.60;;
48040;SDS011;33815;48.386;11.738;2023-05-10T09:08:23;2.13;;;1.40;;
48040;SDS011;33815;48.386;11.738;2023-05-10T09:10:53;2.38;;;2.08;;
48040;SDS011;33815;48.386;11.738;2023-05-10T09:13:20;2.38;;;1.77;;
48040;SDS011;33815;48.386;11.738;2023-05-10T09:15:46;1.40;;;1.33;;
48040;SDS011;33815;48.386;11.738;2023-05-10T09:18:13;1.80;;;1.70;;
48040;SDS011;33815;48.386;11.738;2023-05-10T09:20:38;5.38;;;1.50;;
48040;SDS011;33815;48.386;11.738;2023-05-10T09:23:03;1.47;;;1.30;;
48040;SDS011;33815;48.386;11.738;2023-05-10T09:25:28;1.27;;;1.17;;
48040;SDS011;33815;48.386;11.738;2023-05-10T09:27:54;1.30;;;1.20;;
48040;SDS011;33815;48.386;11.738;2023-05-10T09:30:26;1.20;;;1.20;;
48040;SDS011;33815;48.386;11.738;2023-05-10T09:32:53;1.40;;;1.30;;
48040;SDS011;33815;48.386;11.738;2023-05-10T09:35:23;2.45;;;1.20;;
48040;SDS011;33815;48.386;11.738;2023-05-10T09:37:50;1.77;;;1.25;;
48040;SDS011;33815;48.386;11.738;2023-05-10T09:40:19;1.33;;;1.23;;
48040;SDS011;33815;48.386;11.738;2023-05-10T09:42:56;1.13;;;0.90;;
48040;SDS011;33815;48.386;11.738;2023-05-10T09:45:25;3.95;;;2.10;;
48040;SDS011;33815;48.386;11.738;2023-05-10T09:47:51;1.38;;;1.10;;
48040;SDS011;33815;48.386;11.738;2023-05-10T09:50:17;1.15;;;1.05;;
48040;SDS011;33815;48.386;11.738;2023-05-10T09:52:47;1.33;;;1.20;;
48040;SDS011;33815;48.386;11.738;2023-05-10T09:55:18;1.20;;;1.10;;
48040;SDS011;33815;48.386;11.738;2023-05-10T09:57:45;2.75;;;1.10;;
48040;SDS011;33815;48.386;11.738;2023-05-10T10:00:11;2.95;;;1.30;;
48040;SDS011;33815;48.386;11.738;2023-05-10T10:02:42;1.50;;;1.20;;
48040;SDS011;33815;48.386;11.738;2023-05-10T10:05:09;1.00;;;0.85;;
48040;SDS011;33815;48.386;11.738;2023-05-10T10:07:36;1.10;;;1.00;;
48040;SDS011;33815;48.386;11.738;2023-05-10T10:10:02;2.67;;;1.33;;
48040;SDS011;33815;48.386;11.738;2023-05-10T10:12:29;1.88;;;1.45;;
48040;SDS011;33815;48.386;11.738;2023-05-10T10:14:55;8.93;;;2.13;;
48040;SDS011;33815;48.386;11.738;2023-05-10T10:17:21;3.38;;;1.00;;
48040;SDS011;33815;48.386;11.738;2023-05-10T10:19:46;2.28;;;1.30;;
48040;SDS011;33815;48.386;11.738;2023-05-10T10:22:13;4.53;;;0.88;;
48040;SDS011;33815;48.386;11.738;2023-05-10T10:24:39;2.20;;;0.87;;
48040;SDS011;33815;48.386;11.738;2023-05-10T10:27:28;2.88;;;0.80;;
48040;SDS011;33815;48.386;11.738;2023-05-10T10:35:35;2.53;;;0.93;;
48040;SDS011;33815;48.386;11.738;2023-05-10T10:38:01;0.77;;;0.77;;
48040;SDS011;33815;48.386;11.738;2023-05-10T10:40:27;1.35;;;1.25;;
48040;SDS011;33815;48.386;11.738;2023-05-10T10:42:57;1.67;;;0.88;;
48040;SDS011;33815;48.386;11.738;2023-05-10T10:45:23;0.70;;;0.70;;
48040;SDS011;33815;48.386;11.738;2023-05-10T10:50:55;4.85;;;1.00;;
48040;SDS011;33815;48.386;11.738;2023-05-10T10:53:23;24.65;;;2.65;;
48040;SDS011;33815;48.386;11.738;2023-05-10T10:55:51;1.13;;;0.88;;
48040;SDS011;33815;48.386;11.738;2023-05-10T10:58:30;1.30;;;0.82;;
48040;SDS011;33815;48.386;11.738;2023-05-10T11:01:08;3.45;;;1.27;;
48040;SDS011;33815;48.386;11.738;2023-05-10T11:03:36;1.27;;;0.95;;
48040;SDS011;33815;48.386;11.738;2023-05-10T11:06:01;1.17;;;1.08;;
48040;SDS011;33815;48.386;11.738;2023-05-10T11:15:55;1.77;;;1.67;;
48040;SDS011;33815;48.386;11.738;2023-05-10T11:18:28;1.25;;;1.10;;
48040;SDS011;33815;48.386;11.738;2023-05-10T11:20:56;2.80;;;1.08;;
48040;SDS011;33815;48.386;11.738;2023-05-10T11:23:28;2.03;;;0.90;;
48040;SDS011;33815;48.386;11.738;2023-05-10T11:25:55;1.05;;;0.85;;
48040;SDS011;33815;48.386;11.738;2023-05-10T11:28:20;0.85;;;0.70;;
48040;SDS011;33815;48.386;11.738;2023-05-10T11:30:46;3.83;;;0.85;;
48040;SDS011;33815;48.386;11.738;2023-05-10T11:33:15;1.10;;;0.93;;
48040;SDS011;33815;48.386;11.738;2023-05-10T11:35:42;1.00;;;1.00;;
48040;SDS011;33815;48.386;11.738;2023-05-10T11:38:08;1.17;;;1.13;;
48040;SDS011;33815;48.386;11.738;2023-05-10T11:40:35;0.93;;;0.93;;
48040;SDS011;33815;48.386;11.738;2023-05-10T11:43:01;3.22;;;1.02;;
48040;SDS011;33815;48.386;11.738;2023-05-10T11:45:26;2.42;;;1.00;;
48040;SDS011;33815;48.386;11.738;2023-05-10T11:47:53;3.70;;;0.90;;
48040;SDS011;33815;48.386;11.738;2023-05-10T11:50:19;0.55;;;0.55;;
48040;SDS011;33815;48.386;11.738;2023-05-10T11:52:45;1.02;;;0.90;;
48040;SDS011;33815;48.386;11.738;2023-05-10T11:55:10;0.87;;;0.77;;
48040;SDS011;33815;48.386;11.738;2023-05-10T11:57:37;3.55;;;0.73;;
48040;SDS011;33815;48.386;11.738;2023-05-10T12:00:03;0.77;;;0.70;;
48040;SDS011;33815;48.386;11.738;2023-05-10T12:02:29;1.15;;;0.73;;
48040;SDS011;33815;48.386;11.738;2023-05-10T12:04:55;2.47;;;1.00;;
48040;SDS011;33815;48.386;11.738;2023-05-10T12:07:20;2.08;;;1.20;;
48040;SDS011;33815;48.386;11.738;2023-05-10T12:12:41;2.28;;;0.90;;
48040;SDS011;33815;48.386;11.738;2023-05-10T12:15:11;0.90;;;0.90;;
48040;SDS011;33815;48.386;11.738;2023-05-10T12:17:44;1.60;;;1.00;;
48040;SDS011;33815;48.386;11.738;2023-05-10T12:20:16;1.10;;;1.00;;
48040;SDS011;33815;48.386;11.738;2023-05-10T12:22:53;3.90;;;1.10;;
48040;SDS011;33815;48.386;11.738;2023-05-10T12:25:21;1.90;;;1.20;;
48040;SDS011;33815;48.386;11.738;2023-05-10T12:27:51;2.17;;;1.40;;
48040;SDS011;33815;48.386;11.738;2023-05-10T12:30:21;1.95;;;1.38;;
48040;SDS011;33815;48.386;11.738;2023-05-10T12:32:47;1.85;;;1.67;;
48040;SDS011;33815;48.386;11.738;2023-05-10T12:35:12;1.33;;;0.98;;
48040;SDS011;33815;48.386;11.738;2023-05-10T12:37:37;2.25;;;1.10;;
48040;SDS011;33815;48.386;11.738;2023-05-10T12:40:06;1.02;;;1.00;;
48040;SDS011;33815;48.386;11.738;2023-05-10T12:42:33;1.35;;;1.13;;
48040;SDS011;33815;48.386;11.738;2023-05-10T12:44:59;0.77;;;0.77;;
48040;SDS011;33815;48.386;11.738;2023-05-10T12:47:24;6.15;;;1.42;;
48040;SDS011;33815;48.386;11.738;2023-05-10T12:49:50;1.80;;;1.30;;
48040;SDS011;33815;48.386;11.738;2023-05-10T12:52:16;1.05;;;1.00;;
48040;SDS011;33815;48.386;11.738;2023-05-10T12:54:41;2.88;;;1.00;;
48040;SDS011;33815;48.386;11.738;2023-05-10T12:57:06;1.23;;;1.13;;
48040;SDS011;33815;48.386;11.738;2023-05-10T12:59:31;2.77;;;1.10;;
48040;SDS011;33815;48.386;11.738;2023-05-10T13:01:57;4.33;;;1.00;;
48040;SDS011;33815;48.386;11.738;2023-05-10T13:04:22;1.30;;;1.10;;
48040;SDS011;33815;48.386;11.738;2023-05-10T13:06:48;1.85;;;1.10;;
48040;SDS011;33815;48.386;11.738;2023-05-10T13:09:13;2.05;;;1.05;;
48040;SDS011;33815;48.386;11.738;2023-05-10T13:11:38;1.43;;;1.20;;
48040;SDS011;33815;48.386;11.738;2023-05-10T13:14:03;2.53;;;1.10;;
48040;SDS011;33815;48.386;11.738;2023-05-10T13:16:29;0.77;;;0.77;;
48040;SDS011;33815;48.386;11.738;2023-05-10T13:18:54;2.33;;;1.00;;
48040;SDS011;33815;48.386;11.738;2023-05-10T13:21:20;1.60;;;0.83;;
48040;SDS011;33815;48.386;11.738;2023-05-10T13:23:45;0.60;;;0.60;;
48040;SDS011;33815;48.386;11.738;2023-05-10T13:26:11;2.70;;;1.00;;
48040;SDS011;33815;48.386;11.738;2023-05-10T13:28:36;0.77;;;0.70;;
48040;SDS011;33815;48.386;11.738;2023-05-10T13:31:03;4.40;;;1.20;;
48040;SDS011;33815;48.386;11.738;2023-05-10T13:33:29;2.30;;;0.77;;
48040;SDS011;33815;48.386;11.738;2023-05-10T13:35:55;0.70;;;0.70;;
48040;SDS011;33815;48.386;11.738;2023-05-10T13:38:20;2.65;;;0.80;;
48040;SDS011;33815;48.386;11.738;2023-05-10T13:40:45;0.70;;;0.70;;
48040;SDS011;33815;48.386;11.738;2023-05-10T13:43:10;0.85;;;0.80;;
48040;SDS011;33815;48.386;11.738;2023-05-10T13:45:36;3.90;;;1.27;;
48040;SDS011;33815;48.386;11.738;2023-05-10T13:48:01;2.75;;;0.88;;
48040;SDS011;33815;48.386;11.738;2023-05-10T13:50:27;2.38;;;1.23;;
48040;SDS011;33815;48.386;11.738;2023-05-10T13:52:52;2.63;;;1.13;;
48040;SDS011;33815;48.386;11.738;2023-05-10T13:55:17;1.00;;;0.90;;
48040;SDS011;33815;48.386;11.738;2023-05-10T13:57:43;0.80;;;0.80;;
48040;SDS011;33815;48.386;11.738;2023-05-10T14:00:08;1.80;;;0.90;;
48040;SDS011;33815;48.386;11.738;2023-05-10T14:02:34;3.47;;;0.80;;
48040;SDS011;33815;48.386;11.738;2023-05-10T14:04:59;2.45;;;0.90;;
48040;SDS011;33815;48.386;11.738;2023-05-10T14:07:25;1.13;;;0.70;;
48040;SDS011;33815;48.386;11.738;2023-05-10T14:09:50;0.75;;;0.75;;
48040;SDS011;33815;48.386;11.738;2023-05-10T14:12:16;0.88;;;0.88;;
48040;SDS011;33815;48.386;11.738;2023-05-10T14:14:41;1.02;;;0.90;;
48040;SDS011;33815;48.386;11.738;2023-05-10T14:17:07;1.27;;;0.70;;
48040;SDS011;33815;48.386;11.738;2023-05-10T14:19:32;1.00;;;0.73;;
48040;SDS011;33815;48.386;11.738;2023-05-10T14:21:59;1.85;;;0.80;;
48040;SDS011;33815;48.386;11.738;2023-05-10T14:24:24;0.90;;;0.90;;
48040;SDS011;33815;48.386;11.738;2023-05-10T14:26:49;1.60;;;1.03;;
48040;SDS011;33815;48.386;11.738;2023-05-10T14:29:18;2.45;;;0.93;;
48040;SDS011;33815;48.386;11.738;2023-05-10T14:31:44;1.27;;;1.17;;
48040;SDS011;33815;48.386;11.738;2023-05-10T14:34:09;1.20;;;1.20;;
48040;SDS011;33815;48.386;11.738;2023-05-10T14:36:34;2.90;;;1.50;;
48040;SDS011;33815;48.386;11.738;2023-05-10T14:39:00;2.93;;;2.63;;
48040;SDS011;33815;48.386;11.738;2023-05-10T14:41:25;2.50;;;1.37;;
48040;SDS011;33815;48.386;11.738;2023-05-10T14:43:50;2.28;;;0.95;;
48040;SDS011;33815;48.386;11.738;2023-05-10T14:46:16;2.85;;;1.77;;
48040;SDS011;33815;48.386;11.738;2023-05-10T14:48:42;1.55;;;1.40;;
48040;SDS011;33815;48.386;11.738;2023-05-10T14:51:08;1.53;;;1.07;;
48040;SDS011;33815;48.386;11.738;2023-05-10T14:53:33;1.30;;;1.20;;
48040;SDS011;33815;48.386;11.738;2023-05-10T14:55:58;5.13;;;1.40;;
48040;SDS011;33815;48.386;11.738;2023-05-10T14:58:26;1.20;;;1.10;;
48040;SDS011;33815;48.386;11.738;2023-05-10T15:00:51;0.88;;;0.88;;
48040;SDS011;33815;48.386;11.738;2023-05-10T15:03:17;1.42;;;0.80;;
48040;SDS011;33815;48.386;11.738;2023-05-10T15:05:42;1.60;;;0.90;;